createdAt,value
2018-10-18T00:01:48.819Z,100.00
2018-10-18T00:04:53.102Z,100.00
2018-10-18T00:07:57.435Z,100.00
2018-10-18T00:11:01.668Z,100.00
2018-10-18T00:14:06.025Z,100.00
2018-10-18T00:17:15.512Z,100.00
2018-10-18T00:20:19.820Z,100.00
2018-10-18T00:23:24.112Z,100.00
2018-10-18T00:26:28.428Z,100.00
2018-10-18T00:29:32.705Z,100.00
2018-10-18T00:32:36.996Z,100.00
2018-10-18T00:35:42.134Z,100.00
2018-10-18T00:38:46.410Z,100.00
2018-10-18T00:41:50.718Z,100.00
2018-10-18T00:44:54.982Z,100.00
2018-10-18T00:47:59.343Z,100.00
2018-10-18T00:51:03.543Z,100.00
2018-10-18T00:54:08.500Z,100.00
2018-10-18T00:57:12.721Z,100.00
2018-10-18T01:00:16.993Z,100.00
2018-10-18T01:03:21.276Z,100.00
2018-10-18T01:06:25.607Z,100.00
2018-10-18T01:09:29.894Z,100.00
2018-10-18T01:12:34.284Z,100.00
2018-10-18T01:15:38.534Z,100.00
2018-10-18T01:18:42.779Z,100.00
2018-10-18T01:21:47.033Z,100.00
2018-10-18T01:24:51.343Z,100.00
2018-10-18T01:27:55.676Z,100.00
2018-10-18T01:30:59.991Z,100.00
2018-10-18T01:34:04.297Z,100.00
2018-10-18T01:37:08.556Z,100.00
2018-10-18T01:40:12.836Z,100.00
2018-10-18T01:43:17.557Z,100.00
2018-10-18T01:46:21.812Z,100.00
2018-10-18T01:49:26.085Z,100.00
2018-10-18T01:52:30.395Z,100.00
2018-10-18T01:55:34.672Z,100.00
2018-10-18T01:58:38.936Z,100.00
2018-10-18T02:01:43.229Z,100.00
2018-10-18T02:04:47.516Z,100.00
2018-10-18T02:07:51.819Z,100.00
2018-10-18T02:10:56.059Z,100.00
2018-10-18T02:14:00.308Z,100.00
2018-10-18T02:17:04.617Z,100.00
2018-10-18T02:20:09.925Z,100.00
2018-10-18T02:23:14.225Z,100.00
2018-10-18T02:26:18.506Z,100.00
2018-10-18T02:29:22.765Z,100.00
2018-10-18T02:32:27.054Z,100.00
2018-10-18T02:35:31.357Z,100.00
2018-10-18T02:38:35.800Z,100.00
2018-10-18T02:41:40.091Z,100.00
2018-10-18T02:44:44.415Z,100.00
2018-10-18T02:47:48.676Z,100.00
2018-10-18T02:50:52.969Z,100.00
2018-10-18T02:53:57.284Z,100.00
2018-10-18T02:57:01.552Z,100.00
2018-10-18T03:00:06.917Z,100.00
2018-10-18T03:03:11.146Z,100.00
2018-10-18T03:06:15.550Z,100.00
2018-10-18T03:09:19.715Z,100.00
2018-10-18T03:12:23.981Z,100.00
2018-10-18T03:15:28.247Z,100.00
2018-10-18T03:18:32.517Z,100.00
2018-10-18T03:21:36.769Z,100.00
2018-10-18T03:24:41.053Z,100.00
2018-10-18T03:27:45.371Z,100.00
2018-10-18T03:30:49.669Z,100.00
2018-10-18T03:33:53.930Z,100.00
2018-10-18T03:36:58.195Z,100.00
2018-10-18T03:40:02.481Z,100.00
2018-10-18T03:43:06.776Z,100.00
2018-10-18T03:46:11.048Z,100.00
2018-10-18T03:49:15.362Z,100.00
2018-10-18T03:52:19.630Z,100.00
2018-10-18T03:55:23.939Z,100.00
2018-10-18T03:58:28.187Z,100.00
2018-10-18T04:01:32.510Z,100.00
2018-10-18T04:04:36.777Z,100.00
2018-10-18T04:07:41.285Z,100.00
2018-10-18T04:10:45.568Z,100.00
2018-10-18T04:13:49.841Z,100.00
2018-10-18T04:16:54.171Z,100.00
2018-10-18T04:19:58.420Z,100.00
2018-10-18T04:23:02.810Z,100.00
2018-10-18T04:26:07.081Z,100.00
2018-10-18T04:29:11.425Z,100.00
2018-10-18T04:32:15.701Z,100.00
2018-10-18T04:35:20.014Z,100.00
2018-10-18T04:38:24.313Z,100.00
2018-10-18T04:41:28.701Z,100.00
2018-10-18T04:44:33.017Z,100.00
2018-10-18T04:47:37.468Z,100.00
2018-10-18T04:50:41.777Z,100.00
2018-10-18T04:53:46.064Z,100.00
2018-10-18T04:56:50.481Z,100.00
2018-10-18T04:59:54.712Z,100.00
2018-10-18T05:02:58.997Z,100.00
2018-10-18T05:06:04.945Z,100.00
2018-10-18T05:09:09.402Z,100.00
2018-10-18T05:12:13.686Z,100.00
2018-10-18T05:15:17.979Z,100.00
2018-10-18T05:18:23.017Z,100.00
2018-10-18T05:21:27.301Z,100.00
2018-10-18T05:24:31.564Z,100.00
2018-10-18T05:27:35.914Z,100.00
2018-10-18T05:30:40.180Z,100.00
2018-10-18T05:33:44.453Z,100.00
2018-10-18T05:36:48.746Z,100.00
2018-10-18T05:39:53.110Z,100.00
2018-10-18T05:42:57.423Z,100.00
2018-10-18T05:46:01.710Z,100.00
2018-10-18T05:49:05.996Z,100.00
2018-10-18T05:52:10.293Z,100.00
2018-10-18T05:55:14.721Z,100.00
2018-10-18T05:58:18.957Z,100.00
2018-10-18T06:01:23.268Z,100.00
2018-10-18T06:04:27.532Z,100.00
2018-10-18T06:07:31.788Z,100.00
2018-10-18T06:10:53.001Z,100.00
2018-10-18T06:13:57.298Z,100.00
2018-10-18T06:17:01.566Z,100.00
2018-10-18T06:20:06.492Z,100.00
2018-10-18T06:23:10.828Z,100.00
2018-10-18T06:26:15.092Z,100.00
2018-10-18T06:29:19.381Z,100.00
2018-10-18T06:32:23.673Z,100.00
2018-10-18T06:35:27.957Z,100.00
2018-10-18T06:38:32.208Z,100.00
2018-10-18T06:41:36.778Z,100.00
2018-10-18T06:44:41.075Z,100.00
2018-10-18T06:47:45.547Z,100.00
2018-10-18T06:50:49.721Z,100.00
2018-10-18T06:53:54.060Z,100.00
2018-10-18T06:56:58.323Z,100.00
2018-10-18T07:00:02.704Z,100.00
2018-10-18T07:03:06.918Z,100.00
2018-10-18T07:06:11.282Z,100.00
2018-10-18T07:09:15.491Z,100.00
2018-10-18T07:12:19.792Z,100.00
2018-10-18T07:15:24.121Z,100.00
2018-10-18T07:18:28.432Z,100.00
2018-10-18T07:21:32.814Z,100.00
2018-10-18T07:24:37.047Z,100.00
2018-10-18T07:27:42.142Z,100.00
2018-10-18T07:30:46.466Z,100.00
2018-10-18T07:33:50.795Z,100.00
2018-10-18T07:36:55.086Z,100.00
2018-10-18T07:39:59.469Z,100.00
2018-10-18T07:43:03.769Z,100.00
2018-10-18T07:46:08.114Z,100.00
2018-10-18T07:49:12.507Z,100.00
2018-10-18T07:52:16.873Z,100.00
2018-10-18T07:55:21.295Z,100.00
2018-10-18T07:58:25.625Z,100.00
2018-10-18T08:01:30.987Z,100.00
2018-10-18T08:04:35.277Z,100.00
2018-10-18T08:07:39.675Z,100.00
2018-10-18T08:10:44.037Z,100.00
2018-10-18T08:13:48.377Z,100.00
2018-10-18T08:16:52.685Z,99.56
2018-10-18T08:19:57.014Z,97.91
2018-10-18T08:23:01.381Z,97.10
2018-10-18T08:26:05.752Z,96.00
2018-10-18T08:29:10.069Z,94.46
2018-10-18T08:32:14.332Z,93.28
2018-10-18T08:35:18.590Z,93.01
2018-10-18T08:38:23.495Z,91.99
2018-10-18T08:41:27.785Z,91.49
2018-10-18T08:44:32.158Z,92.21
2018-10-18T08:47:36.482Z,91.71
2018-10-18T08:50:40.752Z,90.96
2018-10-18T08:53:45.060Z,89.38
2018-10-18T08:56:49.369Z,91.02
2018-10-18T08:59:53.669Z,89.50
2018-10-18T09:02:57.937Z,89.85
2018-10-18T09:06:02.547Z,88.68
2018-10-18T09:09:09.276Z,88.43
2018-10-18T09:12:13.493Z,87.89
2018-10-18T09:15:17.761Z,88.31
2018-10-18T09:18:22.178Z,87.71
2018-10-18T09:21:26.443Z,87.58
2018-10-18T09:24:30.721Z,87.50
2018-10-18T09:27:34.992Z,87.96
2018-10-18T09:30:39.272Z,86.74
2018-10-18T09:33:43.545Z,85.75
2018-10-18T09:36:47.834Z,86.06
2018-10-18T09:39:52.150Z,84.73
2018-10-18T09:42:56.480Z,85.80
2018-10-18T09:46:00.771Z,85.02
2018-10-18T09:49:05.734Z,85.18
2018-10-18T09:52:09.953Z,85.23
2018-10-18T09:55:14.343Z,85.31
2018-10-18T09:58:18.613Z,83.50
2018-10-18T10:01:28.065Z,84.16
2018-10-18T10:04:32.410Z,82.83
2018-10-18T10:07:36.724Z,83.54
2018-10-18T10:10:41.001Z,81.93
2018-10-18T10:13:45.399Z,82.57
2018-10-18T10:16:49.615Z,82.62
2018-10-18T10:19:53.898Z,81.54
2018-10-18T10:22:58.219Z,80.37
2018-10-18T10:26:02.664Z,83.03
2018-10-18T10:29:06.981Z,81.98
2018-10-18T10:32:11.282Z,80.99
2018-10-18T10:35:15.703Z,80.80
2018-10-18T10:38:19.893Z,78.57
2018-10-18T10:41:24.559Z,80.09
2018-10-18T10:44:29.287Z,78.79
2018-10-18T10:47:33.585Z,79.04
2018-10-18T10:50:37.888Z,80.42
2018-10-18T10:53:42.185Z,79.78
2018-10-18T10:56:46.460Z,80.59
2018-10-18T10:59:50.973Z,80.27
2018-10-18T11:02:55.304Z,80.07
2018-10-18T11:05:59.593Z,78.90
2018-10-18T11:09:04.786Z,76.74
2018-10-18T11:12:09.103Z,77.43
2018-10-18T11:15:13.465Z,78.35
2018-10-18T11:18:17.818Z,78.63
2018-10-18T11:21:22.044Z,79.70
2018-10-18T11:24:26.282Z,79.95
2018-10-18T11:27:30.546Z,79.22
2018-10-18T11:30:34.809Z,77.29
2018-10-18T11:33:39.095Z,76.09
2018-10-18T11:36:43.386Z,76.86
2018-10-18T11:39:47.664Z,75.39
2018-10-18T11:42:51.942Z,75.50
2018-10-18T11:45:56.208Z,77.31
2018-10-18T11:49:00.499Z,76.94
2018-10-18T11:52:05.196Z,75.13
2018-10-18T11:55:09.493Z,75.19
2018-10-18T11:58:14.242Z,75.92
2018-10-18T12:01:18.562Z,77.64
2018-10-18T12:04:22.842Z,78.20
2018-10-18T12:07:27.184Z,75.54
2018-10-18T12:10:31.502Z,73.96
2018-10-18T12:13:35.781Z,74.66
2018-10-18T12:16:40.110Z,75.94
2018-10-18T12:19:44.409Z,75.49
2018-10-18T12:22:48.728Z,76.17
2018-10-18T12:25:53.040Z,75.52
2018-10-18T12:28:57.365Z,75.91
2018-10-18T12:32:01.745Z,77.36
2018-10-18T12:35:06.444Z,77.59
2018-10-18T12:38:10.764Z,75.18
2018-10-18T12:41:15.300Z,76.52
2018-10-18T12:44:19.482Z,76.53
2018-10-18T12:47:23.805Z,76.96
2018-10-18T12:50:28.147Z,78.92
2018-10-18T12:53:32.445Z,79.08
2018-10-18T12:56:36.780Z,78.33
2018-10-18T12:59:41.059Z,78.58
2018-10-18T13:02:45.338Z,74.14
2018-10-18T13:05:49.650Z,74.37
2018-10-18T13:08:54.059Z,74.69
2018-10-18T13:11:58.517Z,75.24
2018-10-18T13:15:02.812Z,75.68
2018-10-18T13:18:07.523Z,76.62
2018-10-18T13:21:11.769Z,77.52
2018-10-18T13:24:16.154Z,77.01
2018-10-18T13:27:20.350Z,74.70
2018-10-18T13:30:24.695Z,73.69
2018-10-18T13:33:28.972Z,75.20
2018-10-18T13:36:33.285Z,75.78
2018-10-18T13:39:37.558Z,75.09
2018-10-18T13:42:41.913Z,74.29
2018-10-18T13:45:46.235Z,74.21
2018-10-18T13:48:50.581Z,73.54
2018-10-18T13:51:54.887Z,73.39
2018-10-18T13:54:59.245Z,71.36
2018-10-18T13:58:04.321Z,70.79
2018-10-18T14:01:08.697Z,66.67
2018-10-18T14:04:13.263Z,69.10
2018-10-18T14:07:17.557Z,69.20
2018-10-18T14:10:21.906Z,70.12
2018-10-18T14:13:26.216Z,68.94
2018-10-18T14:16:30.524Z,67.50
2018-10-18T14:19:34.809Z,68.48
2018-10-18T14:22:39.349Z,68.05
2018-10-18T14:25:43.644Z,70.17
2018-10-18T14:28:51.791Z,68.75
2018-10-18T14:32:02.577Z,69.26
2018-10-18T14:35:10.306Z,69.39
2018-10-18T14:38:15.151Z,68.52
2018-10-18T14:41:19.539Z,68.63
2018-10-18T14:44:23.942Z,68.01
2018-10-18T14:47:28.224Z,68.24
2018-10-18T14:50:32.504Z,69.02
2018-10-18T14:53:36.709Z,67.14
2018-10-18T14:56:40.995Z,67.00
2018-10-18T14:59:45.401Z,68.65
2018-10-18T15:02:51.134Z,67.38
2018-10-18T15:05:55.504Z,69.22
2018-10-18T15:08:59.873Z,68.72
2018-10-18T15:12:04.193Z,68.49
2018-10-18T15:15:09.736Z,68.93
2018-10-18T15:18:14.093Z,69.43
2018-10-18T15:21:18.401Z,69.14
2018-10-18T15:24:22.801Z,70.02
2018-10-18T15:27:27.416Z,69.10
2018-10-18T15:30:31.670Z,69.04
2018-10-18T15:33:36.071Z,68.18
2018-10-18T15:36:40.479Z,68.15
2018-10-18T15:39:45.297Z,69.05
2018-10-18T15:42:49.669Z,69.91
2018-10-18T15:45:56.725Z,69.99
2018-10-18T15:49:01.066Z,70.77
2018-10-18T15:52:05.978Z,71.61
2018-10-18T15:55:10.425Z,72.25
2018-10-18T15:58:14.702Z,72.45
2018-10-18T16:01:19.033Z,73.35
2018-10-18T16:04:23.285Z,73.73
2018-10-18T16:07:27.661Z,74.67
2018-10-18T16:10:31.965Z,75.38
2018-10-18T16:13:37.504Z,75.69
2018-10-18T16:16:41.777Z,76.02
2018-10-18T16:19:46.093Z,76.59
2018-10-18T16:22:50.394Z,76.27
2018-10-18T16:25:54.773Z,76.85
2018-10-18T16:28:59.413Z,77.43
2018-10-18T16:32:03.770Z,77.28
2018-10-18T16:35:08.842Z,78.73
2018-10-18T16:38:13.126Z,79.31
2018-10-18T16:41:17.576Z,79.85
2018-10-18T16:44:21.749Z,79.78
2018-10-18T16:47:26.096Z,80.48
2018-10-18T16:50:30.389Z,81.31
2018-10-18T16:53:35.114Z,81.40
2018-10-18T16:56:39.417Z,81.31
2018-10-18T16:59:43.794Z,82.20
2018-10-18T17:02:48.059Z,81.58
2018-10-18T17:05:52.442Z,81.75
2018-10-18T17:08:56.762Z,83.07
2018-10-18T17:12:01.110Z,83.55
2018-10-18T17:15:06.571Z,84.19
2018-10-18T17:18:10.906Z,84.38
2018-10-18T17:21:15.367Z,84.52
2018-10-18T17:24:19.692Z,84.33
2018-10-18T17:27:24.046Z,85.67
2018-10-18T17:30:28.372Z,85.68
2018-10-18T17:33:32.688Z,85.53
2018-10-18T17:36:37.009Z,86.13
2018-10-18T17:39:41.321Z,86.38
2018-10-18T17:42:45.609Z,86.51
2018-10-18T17:45:49.873Z,86.92
2018-10-18T17:48:54.157Z,86.58
2018-10-18T17:51:58.514Z,86.96
2018-10-18T17:55:02.829Z,87.10
2018-10-18T17:58:07.159Z,87.04
2018-10-18T18:01:11.393Z,87.04
2018-10-18T18:04:15.814Z,87.14
2018-10-18T18:07:20.009Z,87.30
2018-10-18T18:10:24.386Z,87.03
2018-10-18T18:13:28.807Z,86.71
2018-10-18T18:16:34.590Z,87.54
2018-10-18T18:19:42.495Z,87.74
2018-10-18T18:22:47.451Z,87.55
2018-10-18T18:25:51.794Z,87.79
2018-10-18T18:28:56.153Z,88.06
2018-10-18T18:32:00.696Z,88.48
2018-10-18T18:35:05.731Z,88.67
2018-10-18T18:38:10.140Z,88.92
2018-10-18T18:41:14.525Z,88.91
2018-10-18T18:44:18.836Z,89.14
2018-10-18T18:47:23.193Z,88.86
2018-10-18T18:50:27.521Z,89.71
2018-10-18T18:53:31.844Z,89.75
2018-10-18T18:56:38.130Z,89.97
2018-10-18T18:59:42.542Z,89.80
2018-10-18T19:02:47.135Z,90.47
2018-10-18T19:05:51.652Z,90.14
2018-10-18T19:08:56.165Z,90.95
2018-10-18T19:12:00.909Z,90.79
2018-10-18T19:15:06.537Z,91.46
2018-10-18T19:18:11.185Z,91.50
2018-10-18T19:21:15.713Z,92.23
2018-10-18T19:24:20.272Z,91.73
2018-10-18T19:27:25.138Z,92.03
2018-10-18T19:30:29.898Z,92.53
2018-10-18T19:33:36.170Z,93.75
2018-10-18T19:36:41.078Z,93.27
2018-10-18T19:39:45.631Z,93.95
2018-10-18T19:42:50.418Z,93.99
2018-10-18T19:45:58.418Z,94.78
2018-10-18T19:49:07.849Z,94.45
2018-10-18T19:52:12.794Z,94.39
2018-10-18T19:55:22.014Z,94.49
2018-10-18T19:58:26.788Z,95.01
2018-10-18T20:01:31.074Z,94.89
2018-10-18T20:04:35.629Z,95.77
2018-10-18T20:07:40.106Z,95.22
2018-10-18T20:10:44.798Z,95.61
2018-10-18T20:13:49.340Z,95.66
2018-10-18T20:16:53.749Z,95.99
2018-10-18T20:19:58.801Z,96.14
2018-10-18T20:23:03.671Z,96.21
2018-10-18T20:26:08.976Z,96.76
2018-10-18T20:29:13.386Z,96.39
2018-10-18T20:32:18.348Z,96.83
2018-10-18T20:35:23.432Z,97.14
2018-10-18T20:38:28.069Z,96.47
2018-10-18T20:41:32.612Z,97.15
2018-10-18T20:44:37.366Z,96.62
2018-10-18T20:47:42.291Z,96.84
2018-10-18T20:50:46.861Z,97.09
2018-10-18T20:53:51.649Z,97.58
2018-10-18T20:56:56.128Z,97.55
2018-10-18T21:00:00.833Z,97.51
2018-10-18T21:03:06.350Z,97.85
2018-10-18T21:06:11.872Z,97.46
2018-10-18T21:09:17.025Z,97.49
2018-10-18T21:12:22.645Z,97.60
2018-10-18T21:15:27.419Z,97.68
2018-10-18T21:18:32.293Z,97.35
2018-10-18T21:21:37.275Z,97.49
2018-10-18T21:24:41.870Z,98.22
2018-10-18T21:27:46.570Z,97.85
2018-10-18T21:30:51.376Z,98.49
2018-10-18T21:33:55.924Z,98.10
2018-10-18T21:37:00.312Z,97.89
2018-10-18T21:40:04.869Z,97.80
2018-10-18T21:43:09.458Z,98.05
2018-10-18T21:46:13.730Z,98.46
2018-10-18T21:49:18.537Z,98.81
2018-10-18T21:52:23.213Z,99.30
2018-10-18T21:55:27.640Z,99.38
2018-10-18T21:58:32.238Z,99.76
2018-10-18T22:01:36.989Z,100.00
2018-10-18T22:04:41.265Z,100.00
2018-10-18T22:07:45.957Z,100.00
2018-10-18T22:10:51.224Z,100.00
2018-10-18T22:13:56.102Z,100.00
2018-10-18T22:17:01.966Z,100.00
2018-10-18T22:20:08.647Z,100.00
2018-10-18T22:23:14.290Z,100.00
2018-10-18T22:26:19.856Z,100.00
2018-10-18T22:29:24.977Z,100.00
2018-10-18T22:32:30.485Z,100.00
2018-10-18T22:35:36.204Z,100.00
2018-10-18T22:38:42.125Z,100.00
2018-10-18T22:41:47.063Z,100.00
2018-10-18T22:44:51.748Z,100.00
2018-10-18T22:47:57.516Z,100.00
2018-10-18T22:51:03.144Z,100.00
2018-10-18T22:54:07.939Z,100.00
2018-10-18T22:57:12.293Z,100.00
2018-10-18T23:00:16.693Z,100.00
2018-10-18T23:03:22.069Z,100.00
2018-10-18T23:06:26.615Z,100.00
2018-10-18T23:09:31.066Z,100.00
2018-10-18T23:12:36.023Z,100.00
2018-10-18T23:15:40.333Z,100.00
2018-10-18T23:18:45.040Z,100.00
2018-10-18T23:21:49.540Z,100.00
2018-10-18T23:24:54.191Z,100.00
2018-10-18T23:27:58.504Z,100.00
2018-10-18T23:31:03.091Z,100.00
2018-10-18T23:34:08.100Z,100.00
2018-10-18T23:37:12.413Z,100.00
2018-10-18T23:40:17.143Z,100.00
2018-10-18T23:43:21.397Z,100.00
2018-10-18T23:46:25.743Z,100.00
2018-10-18T23:49:30.072Z,100.00
2018-10-18T23:52:34.454Z,100.00
2018-10-18T23:55:38.761Z,100.00
2018-10-18T23:58:43.083Z,100.00
